createdAt,value
2023-05-05T00:01:38.328Z,100626.63
2023-05-05T00:04:05.757Z,100621.41
2023-05-05T00:06:33.078Z,100629.31
2023-05-05T00:09:00.440Z,100632.53
2023-05-05T00:11:27.767Z,100620.09
2023-05-05T00:13:55.043Z,100623.59
2023-05-05T00:16:23.380Z,100626.50
2023-05-05T00:18:50.868Z,100627.16
2023-05-05T00:21:18.137Z,100621.50
2023-05-05T00:23:45.458Z,100624.44
2023-05-05T00:26:12.892Z,100616.66
2023-05-05T00:28:40.616Z,100616.88
2023-05-05T00:31:08.560Z,100611.00
2023-05-05T00:33:36.500Z,100605.13
2023-05-05T00:36:04.606Z,100610.84
2023-05-05T00:38:31.918Z,100612.50
2023-05-05T00:40:59.351Z,100615.41
2023-05-05T00:43:27.662Z,100611.94
2023-05-05T00:46:00.229Z,100622.81
2023-05-05T00:48:29.759Z,100618.66
2023-05-05T00:50:57.145Z,100600.59
2023-05-05T00:53:24.558Z,100615.81
2023-05-05T00:55:52.160Z,100618.53
2023-05-05T00:58:19.503Z,100622.53
2023-05-05T01:00:46.867Z,100622.19
2023-05-05T01:03:15.424Z,100619.09
2023-05-05T01:06:20.028Z,100593.13
2023-05-05T01:09:06.760Z,100602.03
2023-05-05T01:12:14.033Z,100612.06
2023-05-05T01:14:45.209Z,100606.50
2023-05-05T01:17:20.207Z,100612.25
2023-05-05T01:20:09.404Z,100609.75
2023-05-05T01:22:40.017Z,100597.88
2023-05-05T01:25:44.871Z,100598.50
2023-05-05T01:28:26.784Z,100604.06
2023-05-05T01:30:57.085Z,100604.06
2023-05-05T01:33:26.177Z,100592.50
2023-05-05T01:35:56.077Z,100595.03
2023-05-05T01:38:26.790Z,100601.59
2023-05-05T01:41:07.798Z,100593.56
2023-05-05T01:43:35.462Z,100600.41
2023-05-05T01:46:02.859Z,100595.50
2023-05-05T01:48:33.478Z,100590.00
2023-05-05T01:51:01.280Z,100595.50
2023-05-05T01:53:29.231Z,100577.47
2023-05-05T01:55:56.494Z,100596.16
2023-05-05T01:58:24.578Z,100592.81
2023-05-05T02:00:52.109Z,100597.41
2023-05-05T02:03:19.693Z,100594.25
2023-05-05T02:05:47.254Z,100594.09
2023-05-05T02:08:14.655Z,100602.69
2023-05-05T02:10:42.852Z,100566.09
2023-05-05T02:13:10.859Z,100584.97
2023-05-05T02:15:38.665Z,100594.28
2023-05-05T02:18:06.610Z,100582.56
2023-05-05T02:20:34.671Z,100595.88
2023-05-05T02:23:02.130Z,100578.78
2023-05-05T02:25:38.841Z,100571.00
2023-05-05T02:28:08.653Z,100581.63
2023-05-05T02:30:35.883Z,100564.34
2023-05-05T02:33:07.306Z,100577.81
2023-05-05T02:35:41.324Z,100569.88
2023-05-05T02:38:17.340Z,100578.28
2023-05-05T02:40:47.255Z,100572.56
2023-05-05T02:43:18.190Z,100578.13
2023-05-05T02:45:46.326Z,100558.16
2023-05-05T02:48:14.799Z,100573.69
2023-05-05T02:50:42.031Z,100576.06
2023-05-05T02:53:32.040Z,100576.84
2023-05-05T02:56:21.010Z,100584.72
2023-05-05T02:59:16.002Z,100579.28
2023-05-05T03:01:54.895Z,100577.09
2023-05-05T03:04:38.406Z,100591.63
2023-05-05T03:07:26.475Z,100583.88
2023-05-05T03:10:09.796Z,100594.94
2023-05-05T03:13:00.678Z,100589.91
2023-05-05T03:15:44.916Z,100581.47
2023-05-05T03:18:13.221Z,100591.59
2023-05-05T03:20:44.010Z,100594.44
2023-05-05T03:23:13.976Z,100587.94
2023-05-05T03:25:47.032Z,100586.50
2023-05-05T03:28:23.603Z,100583.03
2023-05-05T03:30:50.953Z,100594.94
2023-05-05T03:33:19.582Z,100590.34
2023-05-05T03:35:47.196Z,100595.41
2023-05-05T03:38:15.025Z,100595.72
2023-05-05T03:40:44.758Z,100595.22
2023-05-05T03:43:15.613Z,100606.94
2023-05-05T03:45:43.174Z,100607.59
2023-05-05T03:48:11.220Z,100608.69
2023-05-05T03:50:40.751Z,100610.91
2023-05-05T03:53:08.566Z,100607.44
2023-05-05T03:55:36.077Z,100605.59
2023-05-05T03:58:03.500Z,100620.13
2023-05-05T04:00:31.055Z,100618.22
2023-05-05T04:02:59.004Z,100602.69
2023-05-05T04:05:26.662Z,100618.75
2023-05-05T04:07:54.580Z,100619.38
2023-05-05T04:10:22.046Z,100611.78
2023-05-05T04:12:49.311Z,100627.69
2023-05-05T04:15:17.154Z,100620.09
2023-05-05T04:17:44.972Z,100622.00
2023-05-05T04:20:12.594Z,100611.72
2023-05-05T04:22:40.760Z,100608.06
2023-05-05T04:25:08.243Z,100609.81
2023-05-05T04:27:35.729Z,100625.50
2023-05-05T04:30:03.391Z,100635.81
2023-05-05T04:32:32.793Z,100631.38
2023-05-05T04:35:00.911Z,100625.66
2023-05-05T04:37:28.427Z,100643.38
2023-05-05T04:39:57.222Z,100639.25
2023-05-05T04:42:24.860Z,100641.44
2023-05-05T04:44:52.295Z,100642.38
2023-05-05T04:47:20.623Z,100646.16
2023-05-05T04:49:48.152Z,100644.84
2023-05-05T04:52:15.501Z,100631.94
2023-05-05T04:54:42.811Z,100652.00
2023-05-05T04:57:10.186Z,100645.28
2023-05-05T04:59:37.538Z,100650.44
2023-05-05T05:02:05.027Z,100654.88
2023-05-05T05:04:32.391Z,100662.75
2023-05-05T05:06:59.847Z,100662.03
2023-05-05T05:09:27.627Z,100669.22
2023-05-05T05:11:58.756Z,100658.41
2023-05-05T05:14:27.364Z,100665.78
2023-05-05T05:16:54.803Z,100654.56
2023-05-05T05:19:23.793Z,100660.09
2023-05-05T05:21:51.209Z,100662.34
2023-05-05T05:24:18.591Z,100654.78
2023-05-05T05:26:45.889Z,100660.59
2023-05-05T05:29:13.534Z,100651.16
2023-05-05T05:31:40.828Z,100658.78
2023-05-05T05:34:09.003Z,100641.38
2023-05-05T05:36:37.327Z,100659.91
2023-05-05T05:39:05.109Z,100662.28
2023-05-05T05:41:32.846Z,100654.63
2023-05-05T05:44:00.487Z,100664.31
2023-05-05T05:46:28.512Z,100646.03
2023-05-05T05:48:56.573Z,100674.47
2023-05-05T05:51:24.566Z,100669.47
2023-05-05T05:53:51.963Z,100664.72
2023-05-05T05:56:19.934Z,100675.56
2023-05-05T05:58:48.738Z,100679.50
2023-05-05T06:01:16.449Z,100678.81
2023-05-05T06:03:44.757Z,100671.03
2023-05-05T06:06:12.249Z,100666.59
2023-05-05T06:08:39.755Z,100686.22
2023-05-05T06:11:07.215Z,100677.63
2023-05-05T06:13:34.896Z,100685.75
2023-05-05T06:16:02.754Z,100679.16
2023-05-05T06:18:30.076Z,100679.03
2023-05-05T06:20:57.450Z,100678.56
2023-05-05T06:23:27.907Z,100667.31
2023-05-05T06:25:59.978Z,100666.22
2023-05-05T06:28:27.365Z,100683.31
2023-05-05T06:30:54.784Z,100679.00
2023-05-05T06:33:22.166Z,100678.66
2023-05-05T06:35:51.400Z,100669.03
2023-05-05T06:38:18.892Z,100671.56
2023-05-05T06:40:52.210Z,100671.34
2023-05-05T06:43:19.812Z,100678.22
2023-05-05T06:45:53.913Z,100658.50
2023-05-05T06:48:21.280Z,100678.22
2023-05-05T06:50:48.865Z,100666.50
2023-05-05T06:53:16.354Z,100665.38
2023-05-05T06:55:48.247Z,100667.75
2023-05-05T06:58:15.947Z,100674.06
2023-05-05T07:00:43.599Z,100665.19
2023-05-05T07:03:11.125Z,100662.38
2023-05-05T07:05:38.454Z,100675.84
2023-05-05T07:08:06.665Z,100668.66
2023-05-05T07:10:33.999Z,100687.00
2023-05-05T07:13:01.460Z,100673.13
2023-05-05T07:15:29.827Z,100647.47
2023-05-05T07:17:57.768Z,100677.00
2023-05-05T07:20:25.440Z,100648.56
2023-05-05T07:22:52.905Z,100658.09
2023-05-05T07:25:20.386Z,100637.81
2023-05-05T07:27:47.830Z,100670.13
2023-05-05T07:30:18.393Z,100656.16
2023-05-05T07:32:46.760Z,100665.59
2023-05-05T07:35:14.203Z,100669.53
2023-05-05T07:37:41.583Z,100648.56
2023-05-05T07:40:09.646Z,100666.56
2023-05-05T07:42:40.257Z,100671.91
2023-05-05T07:45:11.153Z,100658.47
2023-05-05T07:47:38.884Z,100657.25
2023-05-05T07:50:07.363Z,100636.19
2023-05-05T07:52:46.644Z,100658.13
2023-05-05T07:55:17.245Z,100644.16
2023-05-05T07:57:45.257Z,100651.19
2023-05-05T08:00:13.548Z,100643.72
2023-05-05T08:02:41.576Z,100647.84
2023-05-05T08:05:09.677Z,100644.69
2023-05-05T08:07:41.520Z,100662.00
2023-05-05T08:10:10.416Z,100657.91
2023-05-05T08:12:38.151Z,100655.25
2023-05-05T08:15:06.696Z,100659.81
2023-05-05T08:17:48.110Z,100656.34
2023-05-05T08:20:19.379Z,100654.06
2023-05-05T08:22:46.843Z,100659.06
2023-05-05T08:25:14.358Z,100651.66
2023-05-05T08:27:42.313Z,100663.91
2023-05-05T08:30:10.081Z,100651.44
2023-05-05T08:32:38.552Z,100659.06
2023-05-05T08:35:06.848Z,100641.72
2023-05-05T08:37:34.799Z,100646.84
2023-05-05T08:40:22.874Z,100657.22
2023-05-05T08:42:50.209Z,100650.16
2023-05-05T08:45:17.588Z,100656.66
2023-05-05T08:48:10.285Z,100654.59
2023-05-05T08:50:37.724Z,100636.63
2023-05-05T08:53:11.620Z,100652.41
2023-05-05T08:55:46.590Z,100648.41
2023-05-05T08:58:14.033Z,100630.38
2023-05-05T09:00:42.977Z,100649.94
2023-05-05T09:03:10.807Z,100646.81
2023-05-05T09:05:38.247Z,100640.59
2023-05-05T09:08:06.869Z,100632.09
2023-05-05T09:10:34.656Z,100621.91
2023-05-05T09:13:04.043Z,100621.91
2023-05-05T09:15:32.244Z,100632.44
2023-05-05T09:18:00.709Z,100636.84
2023-05-05T09:20:35.747Z,100621.28
2023-05-05T09:23:19.753Z,100631.81
2023-05-05T09:26:05.002Z,100630.56
2023-05-05T09:28:32.564Z,100625.03
2023-05-05T09:31:13.768Z,100620.78
2023-05-05T09:33:41.438Z,100629.88
2023-05-05T09:36:08.916Z,100609.53
2023-05-05T09:38:36.910Z,100621.28
2023-05-05T09:41:05.453Z,100611.13
2023-05-05T09:43:52.577Z,100615.00
2023-05-05T09:46:20.135Z,100611.13
2023-05-05T09:48:47.755Z,100608.41
2023-05-05T09:51:15.281Z,100602.94
2023-05-05T09:53:42.747Z,100597.06
2023-05-05T09:56:10.559Z,100604.88
2023-05-05T09:58:38.025Z,100607.25
2023-05-05T10:01:05.909Z,100606.84
2023-05-05T10:03:33.320Z,100595.84
2023-05-05T10:06:04.707Z,100595.50
2023-05-05T10:08:33.739Z,100593.16
2023-05-05T10:11:06.498Z,100588.44
2023-05-05T10:13:36.465Z,100590.78
2023-05-05T10:16:04.423Z,100585.66
2023-05-05T10:18:32.340Z,100596.16
2023-05-05T10:21:04.460Z,100592.94
2023-05-05T10:24:04.400Z,100567.72
2023-05-05T10:26:31.741Z,100581.69
2023-05-05T10:29:01.444Z,100570.25
2023-05-05T10:31:49.020Z,100574.06
2023-05-05T10:34:21.936Z,100578.00
2023-05-05T10:36:49.756Z,100569.34
2023-05-05T10:39:17.230Z,100541.50
2023-05-05T10:41:44.601Z,100566.81
2023-05-05T10:44:12.067Z,100566.06
2023-05-05T10:46:39.508Z,100555.88
2023-05-05T10:49:30.528Z,100555.69
2023-05-05T10:52:13.545Z,100556.38
2023-05-05T10:55:01.392Z,100550.78
2023-05-05T10:57:29.053Z,100540.47
2023-05-05T10:59:56.406Z,100538.44
2023-05-05T11:02:28.084Z,100519.50
2023-05-05T11:05:24.834Z,100536.75
2023-05-05T11:07:52.216Z,100529.03
2023-05-05T11:10:23.788Z,100529.31
2023-05-05T11:12:54.480Z,100505.34
2023-05-05T11:15:27.711Z,100504.69
2023-05-05T11:17:55.914Z,100511.75
2023-05-05T11:20:43.494Z,100510.97
2023-05-05T11:23:10.845Z,100506.44
2023-05-05T11:25:41.425Z,100496.94
2023-05-05T11:28:23.238Z,100505.94
2023-05-05T11:30:57.835Z,100501.91
2023-05-05T11:33:31.952Z,100492.97
2023-05-05T11:36:08.448Z,100492.16
2023-05-05T11:38:38.672Z,100477.66
2023-05-05T11:41:10.392Z,100491.81
2023-05-05T11:43:37.752Z,100487.97
2023-05-05T11:46:12.449Z,100480.84
2023-05-05T11:48:49.104Z,100474.69
2023-05-05T11:51:17.079Z,100484.09
2023-05-05T11:53:45.153Z,100475.78
2023-05-05T11:56:14.220Z,100472.13
2023-05-05T11:58:41.972Z,100453.06
2023-05-05T12:01:09.357Z,100464.75
2023-05-05T12:03:39.831Z,100468.38
2023-05-05T12:06:07.837Z,100470.00
2023-05-05T12:08:38.826Z,100462.56
2023-05-05T12:11:07.877Z,100458.19
2023-05-05T12:13:35.221Z,100453.88
2023-05-05T12:16:12.935Z,100459.19
2023-05-05T12:18:40.648Z,100457.00
2023-05-05T12:21:15.396Z,100452.41
2023-05-05T12:23:43.014Z,100453.44
2023-05-05T12:26:32.163Z,100454.97
2023-05-05T12:28:59.840Z,100442.13
2023-05-05T12:31:40.448Z,100456.31
2023-05-05T12:34:09.063Z,100433.97
2023-05-05T12:36:36.625Z,100449.44
2023-05-05T12:39:06.938Z,100442.94
2023-05-05T12:41:34.463Z,100443.84
2023-05-05T12:44:03.057Z,100437.25
2023-05-05T12:46:31.804Z,100435.13
2023-05-05T12:49:05.134Z,100430.00
2023-05-05T12:51:36.065Z,100439.03
2023-05-05T12:54:07.531Z,100424.53
2023-05-05T12:56:39.837Z,100431.09
2023-05-05T12:59:08.412Z,100403.81
2023-05-05T13:01:36.557Z,100403.25
2023-05-05T13:04:07.741Z,100420.50
2023-05-05T13:06:35.954Z,100417.59
2023-05-05T13:09:04.478Z,100409.22
2023-05-05T13:11:35.778Z,100408.09
2023-05-05T13:14:03.822Z,100410.63
2023-05-05T13:16:33.973Z,100403.53
2023-05-05T13:19:01.319Z,100397.16
2023-05-05T13:21:28.576Z,100386.94
2023-05-05T13:24:01.538Z,100399.00
2023-05-05T13:26:39.654Z,100393.28
2023-05-05T13:29:06.929Z,100377.69
2023-05-05T13:31:34.260Z,100375.03
2023-05-05T13:34:01.569Z,100385.06
2023-05-05T13:36:28.881Z,100389.66
2023-05-05T13:38:56.160Z,100383.09
2023-05-05T13:41:23.403Z,100375.19
2023-05-05T13:43:51.323Z,100378.69
2023-05-05T13:46:20.308Z,100380.72
2023-05-05T13:48:47.914Z,100378.50
2023-05-05T13:51:16.425Z,100379.19
2023-05-05T13:53:46.903Z,100365.16
2023-05-05T13:56:14.597Z,100369.63
2023-05-05T13:58:42.508Z,100378.09
2023-05-05T14:01:10.436Z,100377.19
2023-05-05T14:03:39.599Z,100371.00
2023-05-05T14:06:09.100Z,100367.88
2023-05-05T14:08:36.543Z,100375.91
2023-05-05T14:11:03.909Z,100366.50
2023-05-05T14:13:31.290Z,100374.78
2023-05-05T14:15:58.557Z,100365.63
2023-05-05T14:18:26.001Z,100361.50
2023-05-05T14:20:53.329Z,100362.91
2023-05-05T14:23:20.657Z,100364.63
2023-05-05T14:25:47.991Z,100366.41
2023-05-05T14:28:15.374Z,100360.66
2023-05-05T14:30:42.719Z,100362.25
2023-05-05T14:33:10.289Z,100337.59
2023-05-05T14:35:37.589Z,100357.06
2023-05-05T14:38:04.937Z,100363.50
2023-05-05T14:40:32.296Z,100357.34
2023-05-05T14:43:00.211Z,100353.28
2023-05-05T14:45:29.596Z,100351.31
2023-05-05T14:47:56.913Z,100352.13
2023-05-05T14:50:24.245Z,100347.06
2023-05-05T14:52:51.511Z,100346.56
2023-05-05T14:55:18.919Z,100348.41
2023-05-05T14:57:46.222Z,100347.06
2023-05-05T15:00:14.021Z,100346.31
2023-05-05T15:02:41.373Z,100340.13
2023-05-05T15:05:09.094Z,100345.09
2023-05-05T15:07:36.594Z,100342.44
2023-05-05T15:10:04.972Z,100351.16
2023-05-05T15:12:32.397Z,100353.75
2023-05-05T15:14:59.722Z,100348.88
2023-05-05T15:17:27.054Z,100360.16
2023-05-05T15:19:54.467Z,100363.28
2023-05-05T15:22:21.770Z,100351.19
2023-05-05T15:24:49.150Z,100363.53
2023-05-05T15:27:18.102Z,100346.50
2023-05-05T15:29:45.454Z,100339.53
2023-05-05T15:32:12.889Z,100360.28
2023-05-05T15:34:40.220Z,100344.41
2023-05-05T15:37:07.514Z,100351.97
2023-05-05T15:39:34.749Z,100332.19
2023-05-05T15:42:04.960Z,100342.34
2023-05-05T15:44:32.320Z,100341.84
2023-05-05T15:46:59.677Z,100353.00
2023-05-05T15:49:26.946Z,100347.97
2023-05-05T15:51:54.249Z,100345.66
2023-05-05T15:54:21.659Z,100339.25
2023-05-05T15:56:48.917Z,100341.56
2023-05-05T15:59:31.779Z,100337.53
2023-05-05T16:02:03.540Z,100325.03
2023-05-05T16:04:33.770Z,100340.56
2023-05-05T16:07:11.384Z,100316.13
2023-05-05T16:09:38.855Z,100322.00
2023-05-05T16:12:06.150Z,100317.06
2023-05-05T16:14:33.435Z,100314.22
2023-05-05T16:17:04.058Z,100318.53
2023-05-05T16:19:31.436Z,100310.66
2023-05-05T16:21:58.753Z,100316.84
2023-05-05T16:24:26.125Z,100318.63
2023-05-05T16:26:53.407Z,100309.69
2023-05-05T16:29:20.748Z,100317.03
2023-05-05T16:31:48.067Z,100319.03
2023-05-05T16:34:16.458Z,100317.22
2023-05-05T16:36:44.477Z,100313.47
2023-05-05T16:39:14.404Z,100315.78
2023-05-05T16:41:42.212Z,100324.06
2023-05-05T16:44:09.615Z,100315.81
2023-05-05T16:46:37.457Z,100321.78
2023-05-05T16:49:05.016Z,100314.38
2023-05-05T16:51:32.330Z,100319.19
2023-05-05T16:53:59.606Z,100307.41
2023-05-05T16:56:26.944Z,100291.91
2023-05-05T16:58:54.221Z,100319.72
2023-05-05T17:01:21.586Z,100321.03
2023-05-05T17:03:48.884Z,100321.94
2023-05-05T17:06:16.221Z,100311.50
2023-05-05T17:08:43.575Z,100322.88
2023-05-05T17:11:11.842Z,100322.94
2023-05-05T17:13:39.296Z,100327.66
2023-05-05T17:16:07.031Z,100318.28
2023-05-05T17:18:34.385Z,100315.53
2023-05-05T17:21:01.715Z,100329.63
2023-05-05T17:23:29.006Z,100331.19
2023-05-05T17:25:58.765Z,100328.06
2023-05-05T17:28:26.464Z,100321.03
2023-05-05T17:30:53.859Z,100314.38
2023-05-05T17:33:22.129Z,100297.13
2023-05-05T17:35:49.443Z,100326.81
2023-05-05T17:38:17.566Z,100320.56
2023-05-05T17:40:45.164Z,100328.78
2023-05-05T17:43:12.474Z,100325.25
2023-05-05T17:45:39.753Z,100329.50
2023-05-05T17:48:08.078Z,100331.03
2023-05-05T17:50:35.380Z,100322.03
2023-05-05T17:53:02.707Z,100323.56
2023-05-05T17:55:30.306Z,100325.06
2023-05-05T17:57:59.043Z,100332.84
2023-05-05T18:00:26.424Z,100332.41
2023-05-05T18:02:53.790Z,100329.22
2023-05-05T18:05:21.289Z,100327.97
2023-05-05T18:07:48.542Z,100334.19
2023-05-05T18:10:16.715Z,100337.63
2023-05-05T18:12:44.092Z,100330.94
2023-05-05T18:15:12.024Z,100334.41
2023-05-05T18:17:39.513Z,100352.69
2023-05-05T18:20:07.466Z,100349.94
2023-05-05T18:22:34.768Z,100348.66
2023-05-05T18:25:02.063Z,100356.84
2023-05-05T18:27:32.407Z,100359.59
2023-05-05T18:30:00.232Z,100355.28
2023-05-05T18:32:28.949Z,100338.81
2023-05-05T18:34:56.281Z,100345.50
2023-05-05T18:37:23.550Z,100352.44
2023-05-05T18:39:50.795Z,100337.53
2023-05-05T18:42:18.081Z,100351.97
2023-05-05T18:44:45.704Z,100351.56
2023-05-05T18:47:13.037Z,100344.53
2023-05-05T18:49:40.289Z,100357.75
2023-05-05T18:52:07.583Z,100363.94
2023-05-05T18:54:36.314Z,100361.63
2023-05-05T18:57:06.650Z,100351.63
2023-05-05T18:59:34.056Z,100363.53
2023-05-05T19:02:02.392Z,100350.91
2023-05-05T19:04:31.584Z,100365.06
2023-05-05T19:06:59.717Z,100361.56
2023-05-05T19:09:27.478Z,100355.66
2023-05-05T19:11:54.836Z,100360.75
2023-05-05T19:14:22.819Z,100353.25
2023-05-05T19:16:50.167Z,100367.31
2023-05-05T19:19:17.524Z,100362.91
2023-05-05T19:21:44.782Z,100365.53
2023-05-05T19:24:12.052Z,100365.53
2023-05-05T19:26:39.330Z,100370.41
2023-05-05T19:29:06.567Z,100362.44
2023-05-05T19:31:33.879Z,100331.66
2023-05-05T19:34:02.832Z,100360.78
2023-05-05T19:36:33.067Z,100369.34
2023-05-05T19:39:01.714Z,100362.03
2023-05-05T19:41:30.580Z,100366.63
2023-05-05T19:43:57.936Z,100365.31
2023-05-05T19:46:28.229Z,100367.69
2023-05-05T19:48:55.818Z,100368.19
2023-05-05T19:51:23.191Z,100369.16
2023-05-05T19:53:50.760Z,100357.34
2023-05-05T19:56:18.115Z,100366.72
2023-05-05T19:58:59.243Z,100365.66
2023-05-05T20:01:27.212Z,100370.38
2023-05-05T20:03:55.848Z,100360.88
2023-05-05T20:06:23.313Z,100368.56
2023-05-05T20:08:50.890Z,100366.16
2023-05-05T20:11:18.284Z,100360.38
2023-05-05T20:13:45.574Z,100364.41
2023-05-05T20:16:12.986Z,100360.41
2023-05-05T20:18:40.401Z,100343.38
2023-05-05T20:21:07.702Z,100363.31
2023-05-05T20:23:35.085Z,100360.19
2023-05-05T20:26:02.617Z,100361.63
2023-05-05T20:28:31.622Z,100356.34
2023-05-05T20:31:00.617Z,100358.91
2023-05-05T20:33:28.462Z,100365.06
2023-05-05T20:35:55.875Z,100366.38
2023-05-05T20:38:23.209Z,100353.38
2023-05-05T20:40:50.822Z,100353.88
2023-05-05T20:43:18.834Z,100353.66
2023-05-05T20:45:46.677Z,100357.94
2023-05-05T20:48:14.030Z,100345.63
2023-05-05T20:50:41.529Z,100361.53
2023-05-05T20:53:09.189Z,100352.38
2023-05-05T20:55:36.527Z,100351.66
2023-05-05T20:58:04.653Z,100355.25
2023-05-05T21:00:32.010Z,100351.66
2023-05-05T21:02:59.399Z,100351.66
2023-05-05T21:05:26.826Z,100339.22
2023-05-05T21:07:54.237Z,100337.13
2023-05-05T21:10:21.623Z,100338.28
2023-05-05T21:12:48.972Z,100337.72
2023-05-05T21:15:16.726Z,100345.81
2023-05-05T21:17:44.247Z,100340.25
2023-05-05T21:20:12.243Z,100336.63
2023-05-05T21:22:39.780Z,100343.13
2023-05-05T21:25:20.508Z,100340.41
2023-05-05T21:27:48.316Z,100338.34
2023-05-05T21:30:16.188Z,100325.63
2023-05-05T21:32:44.068Z,100305.47
2023-05-05T21:35:11.468Z,100332.56
2023-05-05T21:37:39.197Z,100334.81
2023-05-05T21:40:10.823Z,100332.31
2023-05-05T21:42:38.523Z,100335.31
2023-05-05T21:45:06.248Z,100335.72
2023-05-05T21:47:33.806Z,100331.66
2023-05-05T21:50:01.163Z,100333.72
2023-05-05T21:52:28.482Z,100319.50
2023-05-05T21:54:56.014Z,100324.97
2023-05-05T21:57:23.368Z,100318.00
2023-05-05T21:59:50.931Z,100325.88
2023-05-05T22:02:18.217Z,100319.75
2023-05-05T22:04:48.710Z,100323.94
2023-05-05T22:07:16.473Z,100324.91
2023-05-05T22:09:44.032Z,100325.38
2023-05-05T22:12:11.306Z,100320.66
2023-05-05T22:14:38.600Z,100323.81
2023-05-05T22:17:05.942Z,100321.50
2023-05-05T22:19:33.211Z,100314.19
2023-05-05T22:22:00.522Z,100320.25
2023-05-05T22:24:27.781Z,100320.19
2023-05-05T22:26:57.273Z,100319.94
2023-05-05T22:29:25.243Z,100319.75
2023-05-05T22:31:52.796Z,100333.34
2023-05-05T22:34:21.807Z,100330.78
2023-05-05T22:36:49.336Z,100330.19
2023-05-05T22:39:18.546Z,100327.91
2023-05-05T22:41:46.508Z,100337.59
2023-05-05T22:44:13.891Z,100340.81
2023-05-05T22:46:41.284Z,100338.09
2023-05-05T22:49:08.814Z,100319.38
2023-05-05T22:51:37.928Z,100336.50
2023-05-05T22:54:05.330Z,100337.94
2023-05-05T22:56:32.789Z,100325.50
2023-05-05T22:59:00.061Z,100344.63
2023-05-05T23:01:27.432Z,100346.47
2023-05-05T23:03:54.765Z,100343.81
2023-05-05T23:06:22.024Z,100354.66
2023-05-05T23:08:49.350Z,100358.50
2023-05-05T23:11:16.648Z,100359.88
2023-05-05T23:13:43.972Z,100357.00
2023-05-05T23:16:11.304Z,100361.06
2023-05-05T23:18:38.886Z,100347.34
2023-05-05T23:21:06.296Z,100352.75
2023-05-05T23:23:33.609Z,100348.72
2023-05-05T23:26:00.925Z,100358.50
2023-05-05T23:28:28.172Z,100350.31
2023-05-05T23:30:55.625Z,100350.31
2023-05-05T23:33:22.975Z,100346.66
2023-05-05T23:35:50.241Z,100347.13
2023-05-05T23:38:17.457Z,100345.91
2023-05-05T23:40:44.732Z,100346.47
2023-05-05T23:43:14.825Z,100342.53
2023-05-05T23:45:42.147Z,100324.94
2023-05-05T23:48:09.517Z,100344.53
2023-05-05T23:50:36.907Z,100353.56
2023-05-05T23:53:04.135Z,100347.63
2023-05-05T23:55:31.404Z,100328.47
2023-05-05T23:57:58.689Z,100345.38
